Alma Lake, Indiana
Current Conditions -  °F | °C
As of 10:53 PM on Saturday 24 Jan 2015 (Local Time) from KHUF Reporting Station
Clear Clear  
Wind Chill: 35°   Ceiling: Unl
Heat Index: 35°   Visibility: 10mi
Dew Point: 30°   Wind: 3mph
Humidity: 82%   Direction: 190°S
Pressure: 29.75"   Gusts: NA
Location:  39.5158°N, 87.1262°W
Report Text: KHUF 250353Z 19003KT 10SM CLR 02/M01 A2975 RMK AO2 SLP078 T00171011
Loading
Personal Weather Stations






























Interactive Weather Map New forecast layout! Learn more

10-Day Weather Forecast

Advertisements
Track Severe Weather on mobile